sensor_id;sensor_type;location;lat;lon;timestamp;P1;durP1;ratioP1;P2;durP2;ratioP2
25049;SDS011;13046;49.814;9.918;2022-11-15T00:01:55;13.45;;;10.75;;
25049;SDS011;13046;49.814;9.918;2022-11-15T00:04:39;13.32;;;10.00;;
25049;SDS011;13046;49.814;9.918;2022-11-15T00:07:24;11.50;;;9.95;;
25049;SDS011;13046;49.814;9.918;2022-11-15T00:10:08;14.65;;;10.20;;
25049;SDS011;13046;49.814;9.918;2022-11-15T00:12:53;12.90;;;10.75;;
25049;SDS011;13046;49.814;9.918;2022-11-15T00:15:38;13.57;;;10.35;;
25049;SDS011;13046;49.814;9.918;2022-11-15T00:18:23;12.40;;;10.93;;
25049;SDS011;13046;49.814;9.918;2022-11-15T00:21:09;11.43;;;9.90;;
25049;SDS011;13046;49.814;9.918;2022-11-15T00:23:54;13.63;;;11.20;;
25049;SDS011;13046;49.814;9.918;2022-11-15T00:26:39;14.48;;;11.13;;
25049;SDS011;13046;49.814;9.918;2022-11-15T00:29:23;11.55;;;10.35;;
25049;SDS011;13046;49.814;9.918;2022-11-15T00:32:08;12.55;;;9.98;;
25049;SDS011;13046;49.814;9.918;2022-11-15T00:34:53;12.45;;;10.52;;
25049;SDS011;13046;49.814;9.918;2022-11-15T00:37:37;12.77;;;11.07;;
25049;SDS011;13046;49.814;9.918;2022-11-15T00:40:22;12.13;;;10.93;;
25049;SDS011;13046;49.814;9.918;2022-11-15T00:43:06;14.43;;;11.75;;
25049;SDS011;13046;49.814;9.918;2022-11-15T00:45:51;13.05;;;11.48;;
25049;SDS011;13046;49.814;9.918;2022-11-15T00:48:36;14.23;;;10.73;;
25049;SDS011;13046;49.814;9.918;2022-11-15T00:51:21;13.35;;;10.00;;
25049;SDS011;13046;49.814;9.918;2022-11-15T00:54:05;11.45;;;9.70;;
25049;SDS011;13046;49.814;9.918;2022-11-15T00:56:50;14.77;;;10.23;;
25049;SDS011;13046;49.814;9.918;2022-11-15T00:59:34;13.07;;;10.35;;
25049;SDS011;13046;49.814;9.918;2022-11-15T01:02:19;12.30;;;10.05;;
25049;SDS011;13046;49.814;9.918;2022-11-15T01:05:04;11.68;;;9.98;;
25049;SDS011;13046;49.814;9.918;2022-11-15T01:07:52;15.13;;;11.15;;
25049;SDS011;13046;49.814;9.918;2022-11-15T01:10:37;12.32;;;10.52;;
25049;SDS011;13046;49.814;9.918;2022-11-15T01:13:21;11.20;;;9.30;;
25049;SDS011;13046;49.814;9.918;2022-11-15T01:16:07;15.45;;;9.43;;
25049;SDS011;13046;49.814;9.918;2022-11-15T01:18:52;13.63;;;9.80;;
25049;SDS011;13046;49.814;9.918;2022-11-15T01:21:38;13.27;;;9.35;;
25049;SDS011;13046;49.814;9.918;2022-11-15T01:24:23;11.65;;;10.45;;
25049;SDS011;13046;49.814;9.918;2022-11-15T01:27:07;11.45;;;10.27;;
25049;SDS011;13046;49.814;9.918;2022-11-15T01:29:52;12.98;;;10.43;;
25049;SDS011;13046;49.814;9.918;2022-11-15T01:32:37;11.52;;;9.73;;
25049;SDS011;13046;49.814;9.918;2022-11-15T01:35:22;10.98;;;9.95;;
25049;SDS011;13046;49.814;9.918;2022-11-15T01:38:06;13.20;;;10.07;;
25049;SDS011;13046;49.814;9.918;2022-11-15T01:40:51;11.98;;;10.70;;
25049;SDS011;13046;49.814;9.918;2022-11-15T01:43:36;10.73;;;9.40;;
25049;SDS011;13046;49.814;9.918;2022-11-15T01:49:10;12.75;;;10.13;;
25049;SDS011;13046;49.814;9.918;2022-11-15T01:51:57;10.95;;;8.82;;
25049;SDS011;13046;49.814;9.918;2022-11-15T01:54:42;11.43;;;10.13;;
25049;SDS011;13046;49.814;9.918;2022-11-15T01:57:27;13.00;;;10.50;;
25049;SDS011;13046;49.814;9.918;2022-11-15T02:00:12;10.63;;;9.57;;
25049;SDS011;13046;49.814;9.918;2022-11-15T02:02:57;12.18;;;10.50;;
25049;SDS011;13046;49.814;9.918;2022-11-15T02:05:42;11.23;;;10.13;;
25049;SDS011;13046;49.814;9.918;2022-11-15T02:08:27;11.13;;;9.68;;
25049;SDS011;13046;49.814;9.918;2022-11-15T02:11:12;15.77;;;11.00;;
25049;SDS011;13046;49.814;9.918;2022-11-15T02:13:57;13.82;;;10.80;;
25049;SDS011;13046;49.814;9.918;2022-11-15T02:16:54;13.20;;;10.45;;
25049;SDS011;13046;49.814;9.918;2022-11-15T02:19:51;11.52;;;9.82;;
25049;SDS011;13046;49.814;9.918;2022-11-15T02:36:54;11.10;;;9.85;;
25049;SDS011;13046;49.814;9.918;2022-11-15T02:39:48;11.07;;;9.20;;
25049;SDS011;13046;49.814;9.918;2022-11-15T02:42:35;14.15;;;10.45;;
25049;SDS011;13046;49.814;9.918;2022-11-15T02:45:41;16.95;;;11.40;;
25049;SDS011;13046;49.814;9.918;2022-11-15T02:48:29;13.02;;;9.90;;
25049;SDS011;13046;49.814;9.918;2022-11-15T02:51:14;13.55;;;11.38;;
25049;SDS011;13046;49.814;9.918;2022-11-15T02:54:00;12.30;;;10.30;;
25049;SDS011;13046;49.814;9.918;2022-11-15T02:56:44;11.35;;;10.00;;
25049;SDS011;13046;49.814;9.918;2022-11-15T03:02:36;12.55;;;10.57;;
25049;SDS011;13046;49.814;9.918;2022-11-15T03:11:16;14.43;;;10.73;;
25049;SDS011;13046;49.814;9.918;2022-11-15T03:14:07;14.13;;;10.73;;
25049;SDS011;13046;49.814;9.918;2022-11-15T03:19:52;16.42;;;11.15;;
25049;SDS011;13046;49.814;9.918;2022-11-15T03:22:39;15.10;;;11.70;;
25049;SDS011;13046;49.814;9.918;2022-11-15T03:25:26;11.43;;;10.23;;
25049;SDS011;13046;49.814;9.918;2022-11-15T03:28:18;14.82;;;11.00;;
25049;SDS011;13046;49.814;9.918;2022-11-15T03:31:04;13.10;;;11.50;;
25049;SDS011;13046;49.814;9.918;2022-11-15T03:34:10;14.77;;;9.88;;
25049;SDS011;13046;49.814;9.918;2022-11-15T03:36:57;12.02;;;10.50;;
25049;SDS011;13046;49.814;9.918;2022-11-15T03:39:42;12.43;;;10.27;;
25049;SDS011;13046;49.814;9.918;2022-11-15T03:42:28;14.73;;;11.60;;
25049;SDS011;13046;49.814;9.918;2022-11-15T03:45:18;13.15;;;11.45;;
25049;SDS011;13046;49.814;9.918;2022-11-15T03:48:22;13.82;;;10.52;;
25049;SDS011;13046;49.814;9.918;2022-11-15T03:51:08;11.80;;;9.80;;
25049;SDS011;13046;49.814;9.918;2022-11-15T03:53:53;11.98;;;9.65;;
25049;SDS011;13046;49.814;9.918;2022-11-15T03:56:38;10.73;;;9.55;;
25049;SDS011;13046;49.814;9.918;2022-11-15T03:59:23;13.38;;;10.02;;
25049;SDS011;13046;49.814;9.918;2022-11-15T04:02:07;14.30;;;10.73;;
25049;SDS011;13046;49.814;9.918;2022-11-15T04:04:52;11.23;;;9.95;;
25049;SDS011;13046;49.814;9.918;2022-11-15T04:07:36;15.57;;;10.88;;
25049;SDS011;13046;49.814;9.918;2022-11-15T04:10:21;11.65;;;10.38;;
25049;SDS011;13046;49.814;9.918;2022-11-15T04:13:05;13.68;;;10.60;;
25049;SDS011;13046;49.814;9.918;2022-11-15T04:15:51;13.70;;;11.13;;
25049;SDS011;13046;49.814;9.918;2022-11-15T04:18:35;14.27;;;12.77;;
25049;SDS011;13046;49.814;9.918;2022-11-15T04:21:20;13.13;;;11.00;;
25049;SDS011;13046;49.814;9.918;2022-11-15T04:24:23;16.33;;;11.65;;
25049;SDS011;13046;49.814;9.918;2022-11-15T04:27:08;13.75;;;11.27;;
25049;SDS011;13046;49.814;9.918;2022-11-15T04:29:53;15.18;;;11.52;;
25049;SDS011;13046;49.814;9.918;2022-11-15T04:32:38;14.23;;;12.35;;
25049;SDS011;13046;49.814;9.918;2022-11-15T04:35:22;17.08;;;13.20;;
25049;SDS011;13046;49.814;9.918;2022-11-15T04:38:08;21.13;;;14.15;;
25049;SDS011;13046;49.814;9.918;2022-11-15T04:40:53;16.77;;;13.20;;
25049;SDS011;13046;49.814;9.918;2022-11-15T04:43:37;14.07;;;12.55;;
25049;SDS011;13046;49.814;9.918;2022-11-15T04:46:22;14.82;;;13.27;;
25049;SDS011;13046;49.814;9.918;2022-11-15T04:49:07;18.88;;;16.20;;
25049;SDS011;13046;49.814;9.918;2022-11-15T04:51:52;21.10;;;15.63;;
25049;SDS011;13046;49.814;9.918;2022-11-15T04:54:36;18.05;;;13.60;;
25049;SDS011;13046;49.814;9.918;2022-11-15T04:57:21;20.33;;;13.77;;
25049;SDS011;13046;49.814;9.918;2022-11-15T05:00:09;16.63;;;13.50;;
25049;SDS011;13046;49.814;9.918;2022-11-15T05:02:55;15.38;;;12.52;;
25049;SDS011;13046;49.814;9.918;2022-11-15T05:05:59;13.68;;;12.10;;
25049;SDS011;13046;49.814;9.918;2022-11-15T05:08:43;14.25;;;12.35;;
25049;SDS011;13046;49.814;9.918;2022-11-15T05:11:28;14.73;;;11.95;;
25049;SDS011;13046;49.814;9.918;2022-11-15T05:14:13;15.57;;;11.80;;
25049;SDS011;13046;49.814;9.918;2022-11-15T05:16:58;19.58;;;11.85;;
25049;SDS011;13046;49.814;9.918;2022-11-15T05:19:42;16.02;;;13.95;;
25049;SDS011;13046;49.814;9.918;2022-11-15T05:22:28;14.68;;;11.90;;
25049;SDS011;13046;49.814;9.918;2022-11-15T05:25:12;20.90;;;15.02;;
25049;SDS011;13046;49.814;9.918;2022-11-15T05:27:57;16.23;;;14.55;;
25049;SDS011;13046;49.814;9.918;2022-11-15T05:30:42;15.52;;;13.10;;
25049;SDS011;13046;49.814;9.918;2022-11-15T05:33:26;15.93;;;13.77;;
25049;SDS011;13046;49.814;9.918;2022-11-15T05:39:14;13.53;;;11.23;;
25049;SDS011;13046;49.814;9.918;2022-11-15T05:42:00;14.70;;;12.15;;
25049;SDS011;13046;49.814;9.918;2022-11-15T05:44:47;18.58;;;13.93;;
25049;SDS011;13046;49.814;9.918;2022-11-15T05:47:33;14.50;;;12.07;;
25049;SDS011;13046;49.814;9.918;2022-11-15T05:50:22;15.75;;;11.93;;
25049;SDS011;13046;49.814;9.918;2022-11-15T05:53:07;17.17;;;12.90;;
25049;SDS011;13046;49.814;9.918;2022-11-15T05:55:52;16.25;;;11.80;;
25049;SDS011;13046;49.814;9.918;2022-11-15T05:58:37;19.38;;;15.30;;
25049;SDS011;13046;49.814;9.918;2022-11-15T06:01:22;16.25;;;13.50;;
25049;SDS011;13046;49.814;9.918;2022-11-15T06:04:06;16.63;;;13.88;;
25049;SDS011;13046;49.814;9.918;2022-11-15T06:06:51;16.75;;;12.55;;
25049;SDS011;13046;49.814;9.918;2022-11-15T06:09:35;14.65;;;12.43;;
25049;SDS011;13046;49.814;9.918;2022-11-15T06:12:20;15.77;;;12.25;;
25049;SDS011;13046;49.814;9.918;2022-11-15T06:15:05;14.95;;;11.65;;
25049;SDS011;13046;49.814;9.918;2022-11-15T06:17:50;13.00;;;11.63;;
25049;SDS011;13046;49.814;9.918;2022-11-15T06:20:35;20.08;;;13.70;;
25049;SDS011;13046;49.814;9.918;2022-11-15T06:23:19;17.30;;;13.70;;
25049;SDS011;13046;49.814;9.918;2022-11-15T06:26:04;20.02;;;14.07;;
25049;SDS011;13046;49.814;9.918;2022-11-15T06:28:49;17.48;;;15.30;;
25049;SDS011;13046;49.814;9.918;2022-11-15T06:31:33;16.25;;;14.40;;
25049;SDS011;13046;49.814;9.918;2022-11-15T06:34:18;20.77;;;16.38;;
25049;SDS011;13046;49.814;9.918;2022-11-15T06:37:03;16.92;;;13.65;;
25049;SDS011;13046;49.814;9.918;2022-11-15T06:39:47;39.88;;;34.88;;
25049;SDS011;13046;49.814;9.918;2022-11-15T06:42:32;27.52;;;24.70;;
25049;SDS011;13046;49.814;9.918;2022-11-15T06:45:16;22.45;;;17.10;;
25049;SDS011;13046;49.814;9.918;2022-11-15T06:48:01;19.90;;;16.10;;
25049;SDS011;13046;49.814;9.918;2022-11-15T06:50:52;23.83;;;16.15;;
25049;SDS011;13046;49.814;9.918;2022-11-15T06:53:37;17.40;;;15.60;;
25049;SDS011;13046;49.814;9.918;2022-11-15T06:56:22;22.30;;;15.90;;
25049;SDS011;13046;49.814;9.918;2022-11-15T06:59:06;24.85;;;17.75;;
25049;SDS011;13046;49.814;9.918;2022-11-15T07:01:51;22.05;;;19.25;;
25049;SDS011;13046;49.814;9.918;2022-11-15T07:04:35;21.05;;;16.35;;
25049;SDS011;13046;49.814;9.918;2022-11-15T07:07:20;22.80;;;18.30;;
25049;SDS011;13046;49.814;9.918;2022-11-15T07:10:04;35.78;;;29.42;;
25049;SDS011;13046;49.814;9.918;2022-11-15T07:12:50;25.88;;;21.02;;
25049;SDS011;13046;49.814;9.918;2022-11-15T07:15:35;26.35;;;19.60;;
25049;SDS011;13046;49.814;9.918;2022-11-15T07:18:19;22.30;;;18.67;;
25049;SDS011;13046;49.814;9.918;2022-11-15T07:21:08;23.13;;;18.30;;
25049;SDS011;13046;49.814;9.918;2022-11-15T07:23:53;32.25;;;22.17;;
25049;SDS011;13046;49.814;9.918;2022-11-15T07:26:37;27.85;;;19.45;;
25049;SDS011;13046;49.814;9.918;2022-11-15T07:29:22;29.92;;;23.48;;
25049;SDS011;13046;49.814;9.918;2022-11-15T07:32:06;25.33;;;22.35;;
25049;SDS011;13046;49.814;9.918;2022-11-15T07:34:51;26.05;;;20.33;;
25049;SDS011;13046;49.814;9.918;2022-11-15T07:37:36;25.63;;;19.25;;
25049;SDS011;13046;49.814;9.918;2022-11-15T07:40:20;21.88;;;18.48;;
25049;SDS011;13046;49.814;9.918;2022-11-15T07:43:05;25.60;;;19.83;;
25049;SDS011;13046;49.814;9.918;2022-11-15T07:45:50;23.95;;;17.30;;
25049;SDS011;13046;49.814;9.918;2022-11-15T07:48:35;22.23;;;16.60;;
25049;SDS011;13046;49.814;9.918;2022-11-15T07:51:20;23.60;;;18.17;;
25049;SDS011;13046;49.814;9.918;2022-11-15T07:54:04;23.45;;;15.65;;
25049;SDS011;13046;49.814;9.918;2022-11-15T07:56:49;16.90;;;15.20;;
25049;SDS011;13046;49.814;9.918;2022-11-15T07:59:34;15.77;;;14.15;;
25049;SDS011;13046;49.814;9.918;2022-11-15T08:02:18;17.58;;;15.07;;
25049;SDS011;13046;49.814;9.918;2022-11-15T08:05:03;16.80;;;15.02;;
25049;SDS011;13046;49.814;9.918;2022-11-15T08:07:47;18.13;;;13.52;;
25049;SDS011;13046;49.814;9.918;2022-11-15T08:10:32;14.00;;;12.50;;
25049;SDS011;13046;49.814;9.918;2022-11-15T08:13:17;16.17;;;11.43;;
25049;SDS011;13046;49.814;9.918;2022-11-15T08:16:02;13.20;;;11.82;;
25049;SDS011;13046;49.814;9.918;2022-11-15T08:18:49;14.75;;;12.00;;
25049;SDS011;13046;49.814;9.918;2022-11-15T08:21:33;17.38;;;12.82;;
25049;SDS011;13046;49.814;9.918;2022-11-15T08:24:18;15.07;;;13.13;;
25049;SDS011;13046;49.814;9.918;2022-11-15T08:27:03;13.48;;;12.07;;
25049;SDS011;13046;49.814;9.918;2022-11-15T08:29:48;15.55;;;13.95;;
25049;SDS011;13046;49.814;9.918;2022-11-15T08:32:34;15.85;;;13.95;;
25049;SDS011;13046;49.814;9.918;2022-11-15T08:35:19;25.55;;;14.68;;
25049;SDS011;13046;49.814;9.918;2022-11-15T08:38:04;15.63;;;13.98;;
25049;SDS011;13046;49.814;9.918;2022-11-15T08:40:50;21.85;;;15.93;;
25049;SDS011;13046;49.814;9.918;2022-11-15T08:43:35;27.92;;;20.27;;
25049;SDS011;13046;49.814;9.918;2022-11-15T08:46:20;25.65;;;18.92;;
25049;SDS011;13046;49.814;9.918;2022-11-15T08:49:04;30.38;;;20.27;;
25049;SDS011;13046;49.814;9.918;2022-11-15T08:51:49;22.75;;;19.95;;
25049;SDS011;13046;49.814;9.918;2022-11-15T08:54:34;23.45;;;19.65;;
25049;SDS011;13046;49.814;9.918;2022-11-15T08:57:18;28.20;;;22.52;;
25049;SDS011;13046;49.814;9.918;2022-11-15T09:00:03;28.20;;;22.70;;
25049;SDS011;13046;49.814;9.918;2022-11-15T09:02:47;25.92;;;20.00;;
25049;SDS011;13046;49.814;9.918;2022-11-15T09:05:32;31.42;;;21.23;;
25049;SDS011;13046;49.814;9.918;2022-11-15T09:08:19;29.23;;;23.85;;
25049;SDS011;13046;49.814;9.918;2022-11-15T09:11:07;26.42;;;20.20;;
25049;SDS011;13046;49.814;9.918;2022-11-15T09:13:52;23.95;;;19.67;;
25049;SDS011;13046;49.814;9.918;2022-11-15T09:16:36;23.20;;;18.85;;
25049;SDS011;13046;49.814;9.918;2022-11-15T09:19:21;24.35;;;18.00;;
25049;SDS011;13046;49.814;9.918;2022-11-15T09:22:06;21.85;;;18.30;;
25049;SDS011;13046;49.814;9.918;2022-11-15T09:24:51;20.75;;;17.60;;
25049;SDS011;13046;49.814;9.918;2022-11-15T09:27:36;31.02;;;20.58;;
25049;SDS011;13046;49.814;9.918;2022-11-15T09:30:20;23.88;;;18.10;;
25049;SDS011;13046;49.814;9.918;2022-11-15T09:33:06;17.30;;;14.48;;
25049;SDS011;13046;49.814;9.918;2022-11-15T09:35:51;23.85;;;19.05;;
25049;SDS011;13046;49.814;9.918;2022-11-15T09:38:36;19.60;;;14.45;;
25049;SDS011;13046;49.814;9.918;2022-11-15T09:49:44;16.20;;;13.00;;
25049;SDS011;13046;49.814;9.918;2022-11-15T09:52:16;17.58;;;14.15;;
25049;SDS011;13046;49.814;9.918;2022-11-15T09:54:43;17.83;;;13.88;;
25049;SDS011;13046;49.814;9.918;2022-11-15T09:57:12;14.10;;;12.68;;
25049;SDS011;13046;49.814;9.918;2022-11-15T10:05:02;13.35;;;11.95;;
25049;SDS011;13046;49.814;9.918;2022-11-15T10:12:58;15.15;;;10.85;;
25049;SDS011;13046;49.814;9.918;2022-11-15T10:15:24;16.80;;;10.68;;
25049;SDS011;13046;49.814;9.918;2022-11-15T10:20:29;16.58;;;12.80;;
25049;SDS011;13046;49.814;9.918;2022-11-15T10:22:59;12.73;;;11.15;;
25049;SDS011;13046;49.814;9.918;2022-11-15T10:25:26;12.88;;;10.07;;
25049;SDS011;13046;49.814;9.918;2022-11-15T10:27:58;11.43;;;10.00;;
25049;SDS011;13046;49.814;9.918;2022-11-15T10:30:38;12.82;;;9.60;;
25049;SDS011;13046;49.814;9.918;2022-11-15T10:33:12;10.75;;;9.45;;
25049;SDS011;13046;49.814;9.918;2022-11-15T10:35:39;12.45;;;10.45;;
25049;SDS011;13046;49.814;9.918;2022-11-15T10:38:07;11.57;;;9.38;;
25049;SDS011;13046;49.814;9.918;2022-11-15T10:40:33;13.20;;;10.40;;
25049;SDS011;13046;49.814;9.918;2022-11-15T10:45:35;10.85;;;9.75;;
25049;SDS011;13046;49.814;9.918;2022-11-15T10:50:40;13.07;;;9.80;;
25049;SDS011;13046;49.814;9.918;2022-11-15T10:55:49;13.45;;;10.70;;
25049;SDS011;13046;49.814;9.918;2022-11-15T10:58:26;11.25;;;10.02;;
25049;SDS011;13046;49.814;9.918;2022-11-15T11:00:55;9.77;;;8.75;;
25049;SDS011;13046;49.814;9.918;2022-11-15T11:03:27;13.68;;;11.10;;
25049;SDS011;13046;49.814;9.918;2022-11-15T11:06:02;12.82;;;9.95;;
25049;SDS011;13046;49.814;9.918;2022-11-15T11:08:29;11.00;;;9.90;;
25049;SDS011;13046;49.814;9.918;2022-11-15T11:11:00;13.45;;;9.43;;
25049;SDS011;13046;49.814;9.918;2022-11-15T11:13:31;11.70;;;9.35;;
25049;SDS011;13046;49.814;9.918;2022-11-15T11:21:40;10.90;;;9.70;;
25049;SDS011;13046;49.814;9.918;2022-11-15T11:29:44;10.48;;;8.18;;
25049;SDS011;13046;49.814;9.918;2022-11-15T11:41:01;12.32;;;7.95;;
25049;SDS011;13046;49.814;9.918;2022-11-15T11:43:12;10.00;;;8.27;;
25049;SDS011;13046;49.814;9.918;2022-11-15T11:45:44;13.35;;;8.20;;
25049;SDS011;13046;49.814;9.918;2022-11-15T11:50:58;13.20;;;8.13;;
25049;SDS011;13046;49.814;9.918;2022-11-15T11:53:28;8.25;;;7.25;;
25049;SDS011;13046;49.814;9.918;2022-11-15T11:56:01;13.88;;;8.68;;
25049;SDS011;13046;49.814;9.918;2022-11-15T11:58:38;12.30;;;7.75;;
25049;SDS011;13046;49.814;9.918;2022-11-15T12:01:14;10.90;;;8.50;;
25049;SDS011;13046;49.814;9.918;2022-11-15T12:03:51;11.82;;;7.60;;
25049;SDS011;13046;49.814;9.918;2022-11-15T12:06:23;8.82;;;7.93;;
25049;SDS011;13046;49.814;9.918;2022-11-15T12:09:05;10.65;;;9.05;;
25049;SDS011;13046;49.814;9.918;2022-11-15T12:11:51;14.95;;;9.73;;
25049;SDS011;13046;49.814;9.918;2022-11-15T12:17:02;12.07;;;7.63;;
25049;SDS011;13046;49.814;9.918;2022-11-15T12:19:29;11.65;;;7.85;;
25049;SDS011;13046;49.814;9.918;2022-11-15T12:22:04;13.55;;;8.98;;
25049;SDS011;13046;49.814;9.918;2022-11-15T12:24:41;12.82;;;8.32;;
25049;SDS011;13046;49.814;9.918;2022-11-15T12:27:18;9.70;;;8.80;;
25049;SDS011;13046;49.814;9.918;2022-11-15T12:30:19;9.40;;;8.45;;
25049;SDS011;13046;49.814;9.918;2022-11-15T12:32:38;14.52;;;9.02;;
25049;SDS011;13046;49.814;9.918;2022-11-15T12:35:06;11.35;;;9.10;;
25049;SDS011;13046;49.814;9.918;2022-11-15T12:38:04;12.70;;;9.65;;
25049;SDS011;13046;49.814;9.918;2022-11-15T12:40:31;11.50;;;8.23;;
25049;SDS011;13046;49.814;9.918;2022-11-15T12:43:02;11.93;;;8.73;;
25049;SDS011;13046;49.814;9.918;2022-11-15T12:45:33;21.20;;;11.45;;
25049;SDS011;13046;49.814;9.918;2022-11-15T12:50:59;17.17;;;13.35;;
25049;SDS011;13046;49.814;9.918;2022-11-15T12:53:30;15.73;;;11.85;;
25049;SDS011;13046;49.814;9.918;2022-11-15T12:58:45;12.43;;;9.35;;
25049;SDS011;13046;49.814;9.918;2022-11-15T13:04:12;15.02;;;10.38;;
25049;SDS011;13046;49.814;9.918;2022-11-15T13:06:49;14.23;;;10.60;;
25049;SDS011;13046;49.814;9.918;2022-11-15T13:11:55;13.32;;;11.93;;
25049;SDS011;13046;49.814;9.918;2022-11-15T13:19:46;11.75;;;9.98;;
25049;SDS011;13046;49.814;9.918;2022-11-15T13:22:13;11.55;;;9.75;;
25049;SDS011;13046;49.814;9.918;2022-11-15T13:24:58;12.50;;;9.90;;
25049;SDS011;13046;49.814;9.918;2022-11-15T13:27:25;11.88;;;9.88;;
25049;SDS011;13046;49.814;9.918;2022-11-15T13:29:51;14.02;;;9.43;;
25049;SDS011;13046;49.814;9.918;2022-11-15T13:32:18;15.55;;;10.77;;
25049;SDS011;13046;49.814;9.918;2022-11-15T13:34:44;11.18;;;9.75;;
25049;SDS011;13046;49.814;9.918;2022-11-15T13:39:50;12.93;;;9.15;;
25049;SDS011;13046;49.814;9.918;2022-11-15T13:42:17;11.32;;;9.65;;
25049;SDS011;13046;49.814;9.918;2022-11-15T13:44:59;15.75;;;11.50;;
25049;SDS011;13046;49.814;9.918;2022-11-15T13:47:26;12.10;;;9.55;;
25049;SDS011;13046;49.814;9.918;2022-11-15T13:49:56;13.45;;;9.35;;
25049;SDS011;13046;49.814;9.918;2022-11-15T13:52:22;16.77;;;11.90;;
25049;SDS011;13046;49.814;9.918;2022-11-15T13:54:59;14.35;;;10.85;;
25049;SDS011;13046;49.814;9.918;2022-11-15T13:57:29;13.18;;;11.20;;
25049;SDS011;13046;49.814;9.918;2022-11-15T13:59:57;12.57;;;11.00;;
25049;SDS011;13046;49.814;9.918;2022-11-15T14:02:27;13.55;;;10.90;;
25049;SDS011;13046;49.814;9.918;2022-11-15T14:04:55;15.00;;;10.68;;
25049;SDS011;13046;49.814;9.918;2022-11-15T14:07:23;15.38;;;11.45;;
25049;SDS011;13046;49.814;9.918;2022-11-15T14:09:50;27.05;;;16.27;;
25049;SDS011;13046;49.814;9.918;2022-11-15T14:12:22;17.33;;;13.13;;
25049;SDS011;13046;49.814;9.918;2022-11-15T14:14:49;18.17;;;11.60;;
25049;SDS011;13046;49.814;9.918;2022-11-15T14:19:48;12.15;;;10.93;;
25049;SDS011;13046;49.814;9.918;2022-11-15T14:22:16;13.85;;;9.68;;
25049;SDS011;13046;49.814;9.918;2022-11-15T14:24:43;14.60;;;11.00;;
25049;SDS011;13046;49.814;9.918;2022-11-15T14:29:48;14.50;;;11.50;;
25049;SDS011;13046;49.814;9.918;2022-11-15T14:32:18;14.52;;;11.90;;
25049;SDS011;13046;49.814;9.918;2022-11-15T14:34:45;17.15;;;10.68;;
25049;SDS011;13046;49.814;9.918;2022-11-15T14:37:16;11.20;;;10.20;;
25049;SDS011;13046;49.814;9.918;2022-11-15T14:39:44;13.70;;;9.95;;
25049;SDS011;13046;49.814;9.918;2022-11-15T14:42:10;12.73;;;10.63;;
25049;SDS011;13046;49.814;9.918;2022-11-15T14:44:36;11.32;;;10.25;;
25049;SDS011;13046;49.814;9.918;2022-11-15T14:47:02;11.07;;;9.95;;
25049;SDS011;13046;49.814;9.918;2022-11-15T14:49:28;21.02;;;11.30;;
25049;SDS011;13046;49.814;9.918;2022-11-15T14:51:54;14.27;;;11.52;;
25049;SDS011;13046;49.814;9.918;2022-11-15T14:54:20;17.45;;;12.20;;
25049;SDS011;13046;49.814;9.918;2022-11-15T14:56:47;15.27;;;12.32;;
25049;SDS011;13046;49.814;9.918;2022-11-15T14:59:13;17.02;;;14.38;;
25049;SDS011;13046;49.814;9.918;2022-11-15T15:01:39;16.70;;;12.13;;
25049;SDS011;13046;49.814;9.918;2022-11-15T15:04:05;18.58;;;14.15;;
25049;SDS011;13046;49.814;9.918;2022-11-15T15:06:31;24.30;;;13.38;;
25049;SDS011;13046;49.814;9.918;2022-11-15T15:08:57;15.63;;;12.88;;
25049;SDS011;13046;49.814;9.918;2022-11-15T15:11:24;17.90;;;12.32;;
25049;SDS011;13046;49.814;9.918;2022-11-15T15:13:51;14.82;;;12.77;;
25049;SDS011;13046;49.814;9.918;2022-11-15T15:16:18;15.45;;;12.15;;
25049;SDS011;13046;49.814;9.918;2022-11-15T15:18:44;18.67;;;14.32;;
25049;SDS011;13046;49.814;9.918;2022-11-15T15:21:26;17.25;;;13.30;;
25049;SDS011;13046;49.814;9.918;2022-11-15T15:23:53;15.65;;;12.52;;
25049;SDS011;13046;49.814;9.918;2022-11-15T15:26:19;15.77;;;11.70;;
25049;SDS011;13046;49.814;9.918;2022-11-15T15:28:46;17.40;;;14.75;;
25049;SDS011;13046;49.814;9.918;2022-11-15T15:31:13;47.05;;;40.22;;
25049;SDS011;13046;49.814;9.918;2022-11-15T15:33:40;38.58;;;34.85;;
25049;SDS011;13046;49.814;9.918;2022-11-15T15:36:16;17.33;;;15.38;;
25049;SDS011;13046;49.814;9.918;2022-11-15T15:38:43;41.40;;;31.38;;
25049;SDS011;13046;49.814;9.918;2022-11-15T15:41:12;17.40;;;14.25;;
25049;SDS011;13046;49.814;9.918;2022-11-15T15:43:39;19.77;;;15.30;;
25049;SDS011;13046;49.814;9.918;2022-11-15T15:46:12;22.35;;;19.13;;
25049;SDS011;13046;49.814;9.918;2022-11-15T15:48:39;17.42;;;15.30;;
25049;SDS011;13046;49.814;9.918;2022-11-15T15:51:05;22.00;;;15.95;;
25049;SDS011;13046;49.814;9.918;2022-11-15T15:53:32;28.13;;;25.13;;
25049;SDS011;13046;49.814;9.918;2022-11-15T15:55:58;25.58;;;21.50;;
25049;SDS011;13046;49.814;9.918;2022-11-15T15:58:24;20.75;;;16.92;;
25049;SDS011;13046;49.814;9.918;2022-11-15T16:00:50;19.95;;;16.35;;
25049;SDS011;13046;49.814;9.918;2022-11-15T16:03:16;20.10;;;14.75;;
25049;SDS011;13046;49.814;9.918;2022-11-15T16:05:42;20.75;;;14.05;;
25049;SDS011;13046;49.814;9.918;2022-11-15T16:08:26;21.00;;;16.48;;
25049;SDS011;13046;49.814;9.918;2022-11-15T16:10:54;20.27;;;17.35;;
25049;SDS011;13046;49.814;9.918;2022-11-15T16:13:20;16.38;;;14.60;;
25049;SDS011;13046;49.814;9.918;2022-11-15T16:15:47;17.15;;;14.23;;
25049;SDS011;13046;49.814;9.918;2022-11-15T16:18:16;14.40;;;12.98;;
25049;SDS011;13046;49.814;9.918;2022-11-15T16:20:43;14.73;;;13.02;;
25049;SDS011;13046;49.814;9.918;2022-11-15T16:23:13;19.70;;;13.63;;
25049;SDS011;13046;49.814;9.918;2022-11-15T16:25:41;15.85;;;11.43;;
25049;SDS011;13046;49.814;9.918;2022-11-15T16:28:15;19.52;;;15.02;;
25049;SDS011;13046;49.814;9.918;2022-11-15T16:30:41;20.63;;;16.95;;
25049;SDS011;13046;49.814;9.918;2022-11-15T16:33:07;17.05;;;14.77;;
25049;SDS011;13046;49.814;9.918;2022-11-15T16:35:33;23.45;;;19.38;;
25049;SDS011;13046;49.814;9.918;2022-11-15T16:37:59;39.38;;;18.88;;
25049;SDS011;13046;49.814;9.918;2022-11-15T16:40:26;27.13;;;22.02;;
25049;SDS011;13046;49.814;9.918;2022-11-15T16:42:54;19.58;;;15.63;;
25049;SDS011;13046;49.814;9.918;2022-11-15T16:45:21;17.58;;;14.82;;
25049;SDS011;13046;49.814;9.918;2022-11-15T16:47:47;14.63;;;13.10;;
25049;SDS011;13046;49.814;9.918;2022-11-15T16:50:17;14.35;;;11.32;;
25049;SDS011;13046;49.814;9.918;2022-11-15T16:52:48;19.08;;;12.32;;
25049;SDS011;13046;49.814;9.918;2022-11-15T16:55:14;15.43;;;10.70;;
25049;SDS011;13046;49.814;9.918;2022-11-15T16:57:40;19.55;;;17.58;;
25049;SDS011;13046;49.814;9.918;2022-11-15T17:00:07;21.88;;;19.48;;
25049;SDS011;13046;49.814;9.918;2022-11-15T17:02:33;27.73;;;20.08;;
25049;SDS011;13046;49.814;9.918;2022-11-15T17:04:59;23.38;;;19.40;;
25049;SDS011;13046;49.814;9.918;2022-11-15T17:07:25;19.92;;;17.80;;
25049;SDS011;13046;49.814;9.918;2022-11-15T17:09:51;28.05;;;23.00;;
25049;SDS011;13046;49.814;9.918;2022-11-15T17:12:17;26.83;;;19.50;;
25049;SDS011;13046;49.814;9.918;2022-11-15T17:14:43;21.35;;;19.02;;
25049;SDS011;13046;49.814;9.918;2022-11-15T17:17:11;27.48;;;23.35;;
25049;SDS011;13046;49.814;9.918;2022-11-15T17:19:37;62.90;;;40.92;;
25049;SDS011;13046;49.814;9.918;2022-11-15T17:22:03;201.25;;;110.95;;